sensor_id;sensor_type;location;lat;lon;timestamp;pressure;altitude;pressure_sealevel;temperature;humidity
77013;BME280;67260;53.130;17.982;2023-08-07T00:00:19;99391.05;;;13.31;89.28
77013;BME280;67260;53.130;17.982;2023-08-07T00:03:06;99390.79;;;13.32;89.66
77013;BME280;67260;53.130;17.982;2023-08-07T00:05:32;99393.92;;;13.31;89.70
77013;BME280;67260;53.130;17.982;2023-08-07T00:08:03;99393.33;;;13.29;89.79
77013;BME280;67260;53.130;17.982;2023-08-07T00:10:40;99388.64;;;13.31;90.05
77013;BME280;67260;53.130;17.982;2023-08-07T00:13:17;99394.19;;;13.31;89.88
77013;BME280;67260;53.130;17.982;2023-08-07T00:15:45;99401.84;;;13.34;90.25
77013;BME280;67260;53.130;17.982;2023-08-07T00:18:19;99403.13;;;13.35;90.26
77013;BME280;67260;53.130;17.982;2023-08-07T00:20:46;99404.54;;;13.39;90.09
77013;BME280;67260;53.130;17.982;2023-08-07T00:23:19;99403.14;;;13.38;90.06
77013;BME280;67260;53.130;17.982;2023-08-07T00:26:32;99405.95;;;13.36;89.74
77013;BME280;67260;53.130;17.982;2023-08-07T00:29:00;99412.52;;;13.35;90.36
77013;BME280;67260;53.130;17.982;2023-08-07T00:31:34;99416.86;;;13.38;90.46
77013;BME280;67260;53.130;17.982;2023-08-07T00:34:01;99410.02;;;13.37;89.95
77013;BME280;67260;53.130;17.982;2023-08-07T00:36:28;99404.56;;;13.34;90.02
77013;BME280;67260;53.130;17.982;2023-08-07T00:38:55;99401.25;;;13.34;90.29
77013;BME280;67260;53.130;17.982;2023-08-07T00:41:24;99399.44;;;13.34;90.54
77013;BME280;67260;53.130;17.982;2023-08-07T00:43:55;99395.09;;;13.38;90.86
77013;BME280;67260;53.130;17.982;2023-08-07T00:46:22;99392.77;;;13.44;90.92
77013;BME280;67260;53.130;17.982;2023-08-07T00:48:49;99384.70;;;13.40;89.94
77013;BME280;67260;53.130;17.982;2023-08-07T00:51:15;99383.08;;;13.38;90.28
77013;BME280;67260;53.130;17.982;2023-08-07T00:53:43;99381.90;;;13.37;90.55
77013;BME280;67260;53.130;17.982;2023-08-07T00:56:10;99382.33;;;13.35;90.24
77013;BME280;67260;53.130;17.982;2023-08-07T00:58:51;99381.99;;;13.34;90.68
77013;BME280;67260;53.130;17.982;2023-08-07T01:01:24;99379.73;;;13.31;90.58
77013;BME280;67260;53.130;17.982;2023-08-07T01:03:51;99378.40;;;13.32;91.19
77013;BME280;67260;53.130;17.982;2023-08-07T01:06:18;99379.27;;;13.34;90.86
77013;BME280;67260;53.130;17.982;2023-08-07T01:08:48;99381.66;;;13.32;90.76
77013;BME280;67260;53.130;17.982;2023-08-07T01:11:46;99381.42;;;13.29;90.56
77013;BME280;67260;53.130;17.982;2023-08-07T01:14:32;99374.48;;;13.26;90.86
77013;BME280;67260;53.130;17.982;2023-08-07T01:17:14;99367.85;;;13.25;91.06
77013;BME280;67260;53.130;17.982;2023-08-07T01:19:42;99369.94;;;13.25;90.99
77013;BME280;67260;53.130;17.982;2023-08-07T01:22:15;99372.33;;;13.24;91.07
77013;BME280;67260;53.130;17.982;2023-08-07T01:24:47;99374.89;;;13.25;90.99
77013;BME280;67260;53.130;17.982;2023-08-07T01:29:52;99381.61;;;13.25;90.70
77013;BME280;67260;53.130;17.982;2023-08-07T01:32:41;99381.61;;;13.24;90.70
77013;BME280;67260;53.130;17.982;2023-08-07T01:35:11;99392.27;;;13.23;90.85
77013;BME280;67260;53.130;17.982;2023-08-07T01:37:41;99394.44;;;13.22;90.72
77013;BME280;67260;53.130;17.982;2023-08-07T01:40:12;99394.14;;;13.24;91.14
77013;BME280;67260;53.130;17.982;2023-08-07T01:42:44;99395.10;;;13.23;90.77
77013;BME280;67260;53.130;17.982;2023-08-07T01:45:10;99387.25;;;13.23;90.79
77013;BME280;67260;53.130;17.982;2023-08-07T01:47:37;99388.33;;;13.23;90.73
77013;BME280;67260;53.130;17.982;2023-08-07T01:50:10;99383.52;;;13.24;91.07
77013;BME280;67260;53.130;17.982;2023-08-07T01:52:42;99379.35;;;13.23;90.28
77013;BME280;67260;53.130;17.982;2023-08-07T01:55:22;99378.19;;;13.23;90.72
77013;BME280;67260;53.130;17.982;2023-08-07T01:58:05;99375.40;;;13.23;90.85
77013;BME280;67260;53.130;17.982;2023-08-07T02:00:45;99374.63;;;13.25;90.73
77013;BME280;67260;53.130;17.982;2023-08-07T02:03:20;99378.52;;;13.24;90.58
77013;BME280;67260;53.130;17.982;2023-08-07T02:05:47;99373.16;;;13.22;90.45
77013;BME280;67260;53.130;17.982;2023-08-07T02:08:19;99367.86;;;13.18;90.26
77013;BME280;67260;53.130;17.982;2023-08-07T02:10:53;99366.31;;;13.15;90.33
77013;BME280;67260;53.130;17.982;2023-08-07T02:13:27;99364.52;;;13.16;90.77
77013;BME280;67260;53.130;17.982;2023-08-07T02:16:00;99371.15;;;13.17;90.75
77013;BME280;67260;53.130;17.982;2023-08-07T02:18:30;99369.50;;;13.17;90.65
77013;BME280;67260;53.130;17.982;2023-08-07T02:20:56;99373.94;;;13.15;90.65
77013;BME280;67260;53.130;17.982;2023-08-07T02:23:25;99368.92;;;13.14;90.83
77013;BME280;67260;53.130;17.982;2023-08-07T02:25:51;99369.17;;;13.11;90.69
77013;BME280;67260;53.130;17.982;2023-08-07T02:28:28;99366.94;;;13.12;90.90
77013;BME280;67260;53.130;17.982;2023-08-07T02:30:58;99363.61;;;13.11;90.59
77013;BME280;67260;53.130;17.982;2023-08-07T02:33:41;99363.33;;;13.08;90.82
77013;BME280;67260;53.130;17.982;2023-08-07T02:36:12;99364.91;;;13.06;90.80
77013;BME280;67260;53.130;17.982;2023-08-07T02:38:39;99363.20;;;13.04;90.95
77013;BME280;67260;53.130;17.982;2023-08-07T02:41:13;99362.31;;;13.06;91.20
77013;BME280;67260;53.130;17.982;2023-08-07T02:43:39;99355.88;;;13.08;91.08
77013;BME280;67260;53.130;17.982;2023-08-07T02:46:06;99354.61;;;13.10;91.25
77013;BME280;67260;53.130;17.982;2023-08-07T02:48:39;99352.27;;;13.12;90.89
77013;BME280;67260;53.130;17.982;2023-08-07T02:51:11;99353.01;;;13.11;91.00
77013;BME280;67260;53.130;17.982;2023-08-07T02:53:40;99358.75;;;13.09;90.81
77013;BME280;67260;53.130;17.982;2023-08-07T02:56:07;99363.23;;;13.07;90.71
77013;BME280;67260;53.130;17.982;2023-08-07T02:58:35;99360.12;;;13.06;90.00
77013;BME280;67260;53.130;17.982;2023-08-07T03:01:08;99365.64;;;13.03;90.31
77013;BME280;67260;53.130;17.982;2023-08-07T03:03:44;99363.92;;;13.01;90.39
77013;BME280;67260;53.130;17.982;2023-08-07T03:06:11;99365.40;;;12.99;90.35
77013;BME280;67260;53.130;17.982;2023-08-07T03:08:38;99372.59;;;12.98;90.74
77013;BME280;67260;53.130;17.982;2023-08-07T03:11:05;99377.13;;;12.98;90.86
77013;BME280;67260;53.130;17.982;2023-08-07T03:13:31;99379.52;;;12.99;91.12
77013;BME280;67260;53.130;17.982;2023-08-07T03:16:05;99380.17;;;13.01;91.14
77013;BME280;67260;53.130;17.982;2023-08-07T03:18:33;99383.28;;;13.02;90.85
77013;BME280;67260;53.130;17.982;2023-08-07T03:20:59;99387.70;;;13.01;90.67
77013;BME280;67260;53.130;17.982;2023-08-07T03:23:30;99394.50;;;13.04;91.12
77013;BME280;67260;53.130;17.982;2023-08-07T03:26:18;99395.80;;;13.07;90.80
77013;BME280;67260;53.130;17.982;2023-08-07T03:28:48;99409.14;;;13.08;90.69
77013;BME280;67260;53.130;17.982;2023-08-07T03:31:18;99408.83;;;13.09;90.77
77013;BME280;67260;53.130;17.982;2023-08-07T03:33:48;99405.38;;;13.12;90.92
77013;BME280;67260;53.130;17.982;2023-08-07T03:36:16;99412.63;;;13.12;90.78
77013;BME280;67260;53.130;17.982;2023-08-07T03:38:43;99415.40;;;13.12;90.28
77013;BME280;67260;53.130;17.982;2023-08-07T03:41:10;99418.00;;;13.10;89.80
77013;BME280;67260;53.130;17.982;2023-08-07T03:43:42;99414.41;;;13.07;89.87
77013;BME280;67260;53.130;17.982;2023-08-07T03:46:08;99416.87;;;13.07;90.20
77013;BME280;67260;53.130;17.982;2023-08-07T03:48:35;99420.26;;;13.11;90.40
77013;BME280;67260;53.130;17.982;2023-08-07T03:51:06;99417.13;;;13.14;90.25
77013;BME280;67260;53.130;17.982;2023-08-07T03:53:46;99419.73;;;13.17;90.39
77013;BME280;67260;53.130;17.982;2023-08-07T03:56:14;99417.48;;;13.22;90.78
77013;BME280;67260;53.130;17.982;2023-08-07T03:58:41;99413.32;;;13.28;89.71
77013;BME280;67260;53.130;17.982;2023-08-07T04:01:08;99414.27;;;13.28;89.44
77013;BME280;67260;53.130;17.982;2023-08-07T04:03:35;99410.80;;;13.27;89.81
77013;BME280;67260;53.130;17.982;2023-08-07T04:06:02;99408.45;;;13.26;89.55
77013;BME280;67260;53.130;17.982;2023-08-07T04:08:31;99413.55;;;13.23;89.52
77013;BME280;67260;53.130;17.982;2023-08-07T04:13:26;99420.09;;;13.20;89.87
77013;BME280;67260;53.130;17.982;2023-08-07T04:15:54;99426.06;;;13.20;90.11
77013;BME280;67260;53.130;17.982;2023-08-07T04:18:21;99429.08;;;13.18;89.35
77013;BME280;67260;53.130;17.982;2023-08-07T04:20:52;99431.25;;;13.17;89.97
77013;BME280;67260;53.130;17.982;2023-08-07T04:23:22;99437.03;;;13.18;90.40
77013;BME280;67260;53.130;17.982;2023-08-07T04:25:50;99436.98;;;13.20;90.24
77013;BME280;67260;53.130;17.982;2023-08-07T04:28:17;99434.55;;;13.20;90.09
77013;BME280;67260;53.130;17.982;2023-08-07T04:30:44;99440.36;;;13.22;90.21
77013;BME280;67260;53.130;17.982;2023-08-07T04:33:11;99439.82;;;13.20;90.10
77013;BME280;67260;53.130;17.982;2023-08-07T04:35:39;99437.30;;;13.19;89.93
77013;BME280;67260;53.130;17.982;2023-08-07T04:38:06;99430.54;;;13.21;90.65
77013;BME280;67260;53.130;17.982;2023-08-07T04:40:33;99433.55;;;13.23;90.12
77013;BME280;67260;53.130;17.982;2023-08-07T04:43:00;99434.72;;;13.22;90.02
77013;BME280;67260;53.130;17.982;2023-08-07T04:45:27;99442.80;;;13.20;89.60
77013;BME280;67260;53.130;17.982;2023-08-07T04:47:57;99447.98;;;13.19;90.11
77013;BME280;67260;53.130;17.982;2023-08-07T04:50:23;99447.53;;;13.25;90.60
77013;BME280;67260;53.130;17.982;2023-08-07T04:52:50;99449.94;;;13.31;90.41
77013;BME280;67260;53.130;17.982;2023-08-07T04:55:17;99456.05;;;13.35;89.80
77013;BME280;67260;53.130;17.982;2023-08-07T04:57:43;99457.39;;;13.36;89.82
77013;BME280;67260;53.130;17.982;2023-08-07T05:00:10;99458.91;;;13.34;88.93
77013;BME280;67260;53.130;17.982;2023-08-07T05:02:37;99465.39;;;13.30;89.17
77013;BME280;67260;53.130;17.982;2023-08-07T05:05:04;99464.98;;;13.26;88.81
77013;BME280;67260;53.130;17.982;2023-08-07T05:07:33;99467.56;;;13.21;89.23
77013;BME280;67260;53.130;17.982;2023-08-07T05:10:04;99470.25;;;13.19;89.14
77013;BME280;67260;53.130;17.982;2023-08-07T05:12:31;99478.36;;;13.17;90.01
77013;BME280;67260;53.130;17.982;2023-08-07T05:14:59;99477.46;;;13.19;90.28
77013;BME280;67260;53.130;17.982;2023-08-07T05:17:26;99485.20;;;13.19;89.32
77013;BME280;67260;53.130;17.982;2023-08-07T05:19:52;99482.27;;;13.16;89.90
77013;BME280;67260;53.130;17.982;2023-08-07T05:22:19;99487.52;;;13.15;90.54
77013;BME280;67260;53.130;17.982;2023-08-07T05:24:46;99483.86;;;13.19;90.79
77013;BME280;67260;53.130;17.982;2023-08-07T05:27:18;99485.79;;;13.20;90.40
77013;BME280;67260;53.130;17.982;2023-08-07T05:29:45;99486.43;;;13.19;90.30
77013;BME280;67260;53.130;17.982;2023-08-07T05:32:12;99494.06;;;13.21;90.40
77013;BME280;67260;53.130;17.982;2023-08-07T05:34:40;99497.16;;;13.20;90.11
77013;BME280;67260;53.130;17.982;2023-08-07T05:37:07;99498.91;;;13.19;89.80
77013;BME280;67260;53.130;17.982;2023-08-07T05:39:35;99503.08;;;13.21;90.26
77013;BME280;67260;53.130;17.982;2023-08-07T05:42:02;99507.02;;;13.26;90.39
77013;BME280;67260;53.130;17.982;2023-08-07T05:44:29;99510.36;;;13.29;89.71
77013;BME280;67260;53.130;17.982;2023-08-07T05:46:56;99509.05;;;13.26;88.80
77013;BME280;67260;53.130;17.982;2023-08-07T05:49:23;99505.90;;;13.26;89.29
77013;BME280;67260;53.130;17.982;2023-08-07T05:51:50;99507.85;;;13.29;90.08
77013;BME280;67260;53.130;17.982;2023-08-07T05:54:16;99509.64;;;13.38;90.27
77013;BME280;67260;53.130;17.982;2023-08-07T05:56:43;99513.35;;;13.43;89.25
77013;BME280;67260;53.130;17.982;2023-08-07T05:59:10;99514.61;;;13.47;89.12
77013;BME280;67260;53.130;17.982;2023-08-07T06:01:37;99516.30;;;13.57;88.98
77013;BME280;67260;53.130;17.982;2023-08-07T06:04:04;99517.23;;;13.59;88.35
77013;BME280;67260;53.130;17.982;2023-08-07T06:06:31;99520.36;;;13.63;88.81
77013;BME280;67260;53.130;17.982;2023-08-07T06:09:01;99524.11;;;13.66;88.73
77013;BME280;67260;53.130;17.982;2023-08-07T06:11:32;99525.41;;;13.67;88.45
77013;BME280;67260;53.130;17.982;2023-08-07T06:13:59;99531.73;;;13.64;88.66
77013;BME280;67260;53.130;17.982;2023-08-07T06:16:26;99531.42;;;13.66;88.46
77013;BME280;67260;53.130;17.982;2023-08-07T06:18:54;99529.46;;;13.67;88.44
77013;BME280;67260;53.130;17.982;2023-08-07T06:21:21;99529.73;;;13.73;88.55
77013;BME280;67260;53.130;17.982;2023-08-07T06:23:50;99531.31;;;13.79;88.81
77013;BME280;67260;53.130;17.982;2023-08-07T06:26:17;99536.52;;;13.81;88.52
77013;BME280;67260;53.130;17.982;2023-08-07T06:28:45;99537.45;;;13.85;88.48
77013;BME280;67260;53.130;17.982;2023-08-07T06:31:12;99535.94;;;13.92;88.65
77013;BME280;67260;53.130;17.982;2023-08-07T06:33:39;99537.44;;;14.00;87.84
77013;BME280;67260;53.130;17.982;2023-08-07T06:36:09;99534.56;;;14.02;87.18
77013;BME280;67260;53.130;17.982;2023-08-07T06:38:38;99535.13;;;14.01;86.33
77013;BME280;67260;53.130;17.982;2023-08-07T06:41:05;99541.21;;;14.08;85.45
77013;BME280;67260;53.130;17.982;2023-08-07T06:43:32;99545.75;;;14.24;85.94
77013;BME280;67260;53.130;17.982;2023-08-07T06:45:59;99542.90;;;14.40;84.90
77013;BME280;67260;53.130;17.982;2023-08-07T06:48:26;99545.79;;;14.52;84.71
77013;BME280;67260;53.130;17.982;2023-08-07T06:50:52;99548.10;;;14.61;86.02
77013;BME280;67260;53.130;17.982;2023-08-07T06:53:20;99550.75;;;14.67;85.29
77013;BME280;67260;53.130;17.982;2023-08-07T06:55:46;99554.38;;;14.64;85.20
77013;BME280;67260;53.130;17.982;2023-08-07T06:58:13;99556.38;;;14.58;85.24
77013;BME280;67260;53.130;17.982;2023-08-07T07:00:40;99556.17;;;14.51;84.62
77013;BME280;67260;53.130;17.982;2023-08-07T07:03:07;99560.16;;;14.48;85.24
77013;BME280;67260;53.130;17.982;2023-08-07T07:05:36;99563.02;;;14.51;85.83
77013;BME280;67260;53.130;17.982;2023-08-07T07:08:03;99567.44;;;14.56;85.40
77013;BME280;67260;53.130;17.982;2023-08-07T07:10:30;99568.63;;;14.55;84.52
77013;BME280;67260;53.130;17.982;2023-08-07T07:12:57;99571.35;;;14.53;85.70
77013;BME280;67260;53.130;17.982;2023-08-07T07:15:23;99573.77;;;14.62;84.79
77013;BME280;67260;53.130;17.982;2023-08-07T07:17:50;99580.06;;;14.58;84.07
77013;BME280;67260;53.130;17.982;2023-08-07T07:20:17;99583.85;;;14.51;83.72
77013;BME280;67260;53.130;17.982;2023-08-07T07:22:43;99586.05;;;14.51;85.00
77013;BME280;67260;53.130;17.982;2023-08-07T07:25:10;99589.05;;;14.59;85.55
77013;BME280;67260;53.130;17.982;2023-08-07T07:27:38;99594.95;;;14.63;85.02
77013;BME280;67260;53.130;17.982;2023-08-07T07:30:05;99594.43;;;14.67;85.14
77013;BME280;67260;53.130;17.982;2023-08-07T07:32:32;99588.99;;;14.71;84.45
77013;BME280;67260;53.130;17.982;2023-08-07T07:34:59;99593.42;;;14.70;83.75
77013;BME280;67260;53.130;17.982;2023-08-07T07:37:26;99592.62;;;14.70;84.34
77013;BME280;67260;53.130;17.982;2023-08-07T07:39:52;99595.74;;;14.74;83.93
77013;BME280;67260;53.130;17.982;2023-08-07T07:42:19;99599.46;;;14.83;84.38
77013;BME280;67260;53.130;17.982;2023-08-07T07:44:47;99600.05;;;14.97;83.18
77013;BME280;67260;53.130;17.982;2023-08-07T07:47:14;99601.84;;;15.07;82.81
77013;BME280;67260;53.130;17.982;2023-08-07T07:49:46;99601.61;;;15.17;81.37
77013;BME280;67260;53.130;17.982;2023-08-07T07:52:14;99604.58;;;15.29;81.95
77013;BME280;67260;53.130;17.982;2023-08-07T07:54:41;99608.73;;;15.44;81.16
77013;BME280;67260;53.130;17.982;2023-08-07T07:57:13;99617.05;;;15.60;80.74
77013;BME280;67260;53.130;17.982;2023-08-07T07:59:40;99620.00;;;15.74;79.74
77013;BME280;67260;53.130;17.982;2023-08-07T08:02:07;99618.50;;;15.94;80.43
77013;BME280;67260;53.130;17.982;2023-08-07T08:04:35;99619.60;;;16.26;80.57
77013;BME280;67260;53.130;17.982;2023-08-07T08:07:02;99616.80;;;16.73;78.20
77013;BME280;67260;53.130;17.982;2023-08-07T08:09:30;99612.04;;;17.26;77.82
77013;BME280;67260;53.130;17.982;2023-08-07T08:11:57;99611.70;;;17.81;76.32
77013;BME280;67260;53.130;17.982;2023-08-07T08:14:25;99610.87;;;18.26;74.09
77013;BME280;67260;53.130;17.982;2023-08-07T08:16:52;99614.61;;;18.39;71.80
77013;BME280;67260;53.130;17.982;2023-08-07T08:19:19;99612.02;;;18.69;74.39
77013;BME280;67260;53.130;17.982;2023-08-07T08:21:49;99612.63;;;19.34;71.81
77013;BME280;67260;53.130;17.982;2023-08-07T08:24:16;99608.40;;;19.91;67.08
77013;BME280;67260;53.130;17.982;2023-08-07T08:26:43;99610.39;;;20.68;66.30
77013;BME280;67260;53.130;17.982;2023-08-07T08:29:14;99611.85;;;21.26;62.85
77013;BME280;67260;53.130;17.982;2023-08-07T08:31:41;99610.77;;;21.13;62.00
77013;BME280;67260;53.130;17.982;2023-08-07T08:34:08;99615.84;;;21.13;62.65
77013;BME280;67260;53.130;17.982;2023-08-07T08:36:35;99622.52;;;21.05;62.71
77013;BME280;67260;53.130;17.982;2023-08-07T08:39:02;99619.23;;;21.11;60.61
77013;BME280;67260;53.130;17.982;2023-08-07T08:41:30;99618.85;;;21.27;60.55
77013;BME280;67260;53.130;17.982;2023-08-07T08:43:59;99622.86;;;21.36;61.10
77013;BME280;67260;53.130;17.982;2023-08-07T08:46:30;99615.61;;;21.64;59.44
77013;BME280;67260;53.130;17.982;2023-08-07T08:49:01;99617.56;;;22.52;58.23
77013;BME280;67260;53.130;17.982;2023-08-07T08:51:31;99621.35;;;23.54;53.68
77013;BME280;67260;53.130;17.982;2023-08-07T08:53:59;99616.52;;;26.05;49.89
77013;BME280;67260;53.130;17.982;2023-08-07T08:56:26;99614.34;;;28.46;47.73
77013;BME280;67260;53.130;17.982;2023-08-07T08:58:52;99608.53;;;28.93;49.98
77013;BME280;67260;53.130;17.982;2023-08-07T09:01:20;99611.74;;;27.98;49.04
77013;BME280;67260;53.130;17.982;2023-08-07T09:03:47;99614.39;;;28.04;44.10
77013;BME280;67260;53.130;17.982;2023-08-07T09:06:17;99611.15;;;26.99;45.99
77013;BME280;67260;53.130;17.982;2023-08-07T09:08:47;99612.17;;;26.84;46.34
77013;BME280;67260;53.130;17.982;2023-08-07T09:11:15;99618.63;;;27.92;48.38
77013;BME280;67260;53.130;17.982;2023-08-07T09:13:42;99622.25;;;28.68;44.75
77013;BME280;67260;53.130;17.982;2023-08-07T09:16:11;99617.48;;;27.77;41.27
77013;BME280;67260;53.130;17.982;2023-08-07T09:18:38;99618.15;;;28.11;44.49
77013;BME280;67260;53.130;17.982;2023-08-07T09:21:07;99624.48;;;27.58;43.73
77013;BME280;67260;53.130;17.982;2023-08-07T09:23:38;99636.09;;;25.57;44.39
77013;BME280;67260;53.130;17.982;2023-08-07T09:26:05;99630.27;;;24.37;47.33
77013;BME280;67260;53.130;17.982;2023-08-07T09:28:34;99635.21;;;25.28;46.97
77013;BME280;67260;53.130;17.982;2023-08-07T09:31:07;99636.55;;;24.41;44.96
77013;BME280;67260;53.130;17.982;2023-08-07T09:33:35;99637.65;;;23.23;48.27
77013;BME280;67260;53.130;17.982;2023-08-07T09:36:03;99642.64;;;22.34;50.95
77013;BME280;67260;53.130;17.982;2023-08-07T09:38:36;99649.36;;;21.79;52.01
77013;BME280;67260;53.130;17.982;2023-08-07T09:41:03;99648.46;;;21.59;53.02
77013;BME280;67260;53.130;17.982;2023-08-07T09:43:35;99639.31;;;24.12;49.06
77013;BME280;67260;53.130;17.982;2023-08-07T09:46:10;99633.04;;;26.25;41.00
77013;BME280;67260;53.130;17.982;2023-08-07T09:48:42;99632.60;;;26.26;40.44
77013;BME280;67260;53.130;17.982;2023-08-07T09:51:10;99630.34;;;26.33;42.48
77013;BME280;67260;53.130;17.982;2023-08-07T09:53:40;99637.30;;;25.38;42.39
77013;BME280;67260;53.130;17.982;2023-08-07T09:56:08;99644.54;;;24.39;46.10
77013;BME280;67260;53.130;17.982;2023-08-07T09:58:36;99635.97;;;23.78;47.56
77013;BME280;67260;53.130;17.982;2023-08-07T10:01:03;99641.11;;;23.16;49.41
77013;BME280;67260;53.130;17.982;2023-08-07T10:03:31;99644.09;;;22.55;49.09
77013;BME280;67260;53.130;17.982;2023-08-07T10:05:59;99643.71;;;21.83;50.54
77013;BME280;67260;53.130;17.982;2023-08-07T10:08:26;99650.85;;;21.18;52.21
77013;BME280;67260;53.130;17.982;2023-08-07T10:10:53;99663.46;;;20.66;53.90
77013;BME280;67260;53.130;17.982;2023-08-07T10:13:21;99658.77;;;20.26;54.00
77013;BME280;67260;53.130;17.982;2023-08-07T10:15:49;99660.85;;;19.88;55.40
77013;BME280;67260;53.130;17.982;2023-08-07T10:18:16;99656.33;;;19.62;57.02
77013;BME280;67260;53.130;17.982;2023-08-07T10:20:43;99659.73;;;19.44;56.93
77013;BME280;67260;53.130;17.982;2023-08-07T10:23:11;99666.65;;;19.23;58.20
77013;BME280;67260;53.130;17.982;2023-08-07T10:25:43;99669.20;;;19.12;58.42
77013;BME280;67260;53.130;17.982;2023-08-07T10:28:16;99671.02;;;18.99;59.30
77013;BME280;67260;53.130;17.982;2023-08-07T10:30:49;99672.28;;;18.89;59.30
77013;BME280;67260;53.130;17.982;2023-08-07T10:33:23;99671.60;;;18.77;59.41
77013;BME280;67260;53.130;17.982;2023-08-07T10:36:08;99679.81;;;18.54;60.37
77013;BME280;67260;53.130;17.982;2023-08-07T10:38:36;99681.44;;;18.35;61.15
77013;BME280;67260;53.130;17.982;2023-08-07T10:41:12;99684.65;;;18.25;62.15
77013;BME280;67260;53.130;17.982;2023-08-07T10:43:46;99696.41;;;18.21;62.46
77013;BME280;67260;53.130;17.982;2023-08-07T10:46:21;99714.10;;;18.13;62.76
77013;BME280;67260;53.130;17.982;2023-08-07T10:49:02;99732.17;;;17.89;63.72
77013;BME280;67260;53.130;17.982;2023-08-07T10:51:31;99745.99;;;17.59;65.57
77013;BME280;67260;53.130;17.982;2023-08-07T10:54:06;99752.79;;;17.30;67.06
77013;BME280;67260;53.130;17.982;2023-08-07T10:56:35;99761.83;;;17.05;68.22
77013;BME280;67260;53.130;17.982;2023-08-07T10:59:12;99758.17;;;16.85;69.03
77013;BME280;67260;53.130;17.982;2023-08-07T11:01:41;99755.13;;;16.77;69.72
77013;BME280;67260;53.130;17.982;2023-08-07T11:04:14;99759.31;;;16.77;70.20
77013;BME280;67260;53.130;17.982;2023-08-07T11:06:44;99762.73;;;16.84;70.39
77013;BME280;67260;53.130;17.982;2023-08-07T11:09:14;99757.88;;;16.94;70.37
77013;BME280;67260;53.130;17.982;2023-08-07T11:11:44;99754.95;;;17.08;70.19
77013;BME280;67260;53.130;17.982;2023-08-07T11:14:12;99763.75;;;17.28;69.90
77013;BME280;67260;53.130;17.982;2023-08-07T11:16:41;99764.81;;;17.45;69.78
77013;BME280;67260;53.130;17.982;2023-08-07T11:19:18;99773.91;;;17.65;69.58
77013;BME280;67260;53.130;17.982;2023-08-07T11:21:47;99775.01;;;17.81;69.51
77013;BME280;67260;53.130;17.982;2023-08-07T11:24:16;99774.98;;;17.94;69.16
77013;BME280;67260;53.130;17.982;2023-08-07T11:26:45;99772.06;;;18.13;69.23
77013;BME280;67260;53.130;17.982;2023-08-07T11:29:21;99767.77;;;18.40;69.30
77013;BME280;67260;53.130;17.982;2023-08-07T11:32:02;99761.80;;;18.73;68.67
77013;BME280;67260;53.130;17.982;2023-08-07T11:34:30;99765.09;;;18.88;67.33
77013;BME280;67260;53.130;17.982;2023-08-07T11:36:57;99764.83;;;18.98;67.91
77013;BME280;67260;53.130;17.982;2023-08-07T11:39:29;99769.73;;;19.16;67.63
77013;BME280;67260;53.130;17.982;2023-08-07T11:42:09;99772.90;;;19.22;67.18
77013;BME280;67260;53.130;17.982;2023-08-07T11:44:40;99773.43;;;19.18;66.73
77013;BME280;67260;53.130;17.982;2023-08-07T11:47:09;99775.11;;;19.02;64.65
77013;BME280;67260;53.130;17.982;2023-08-07T11:49:40;99773.60;;;18.81;65.61
77013;BME280;67260;53.130;17.982;2023-08-07T11:52:11;99774.52;;;18.76;65.67
77013;BME280;67260;53.130;17.982;2023-08-07T11:54:41;99784.14;;;18.77;63.92
77013;BME280;67260;53.130;17.982;2023-08-07T11:57:20;99785.77;;;18.66;63.00
77013;BME280;67260;53.130;17.982;2023-08-07T11:59:55;99788.35;;;18.56;63.15
77013;BME280;67260;53.130;17.982;2023-08-07T12:02:54;99793.73;;;18.49;62.57
77013;BME280;67260;53.130;17.982;2023-08-07T12:05:21;99791.29;;;18.46;63.65
77013;BME280;67260;53.130;17.982;2023-08-07T12:07:52;99787.08;;;18.47;63.90
77013;BME280;67260;53.130;17.982;2023-08-07T12:10:29;99782.98;;;18.54;64.24
77013;BME280;67260;53.130;17.982;2023-08-07T12:13:12;99779.20;;;18.66;62.46
77013;BME280;67260;53.130;17.982;2023-08-07T12:15:39;99782.83;;;18.79;61.31
77013;BME280;67260;53.130;17.982;2023-08-07T12:18:09;99784.79;;;18.92;60.71
77013;BME280;67260;53.130;17.982;2023-08-07T12:20:42;99792.14;;;19.11;60.46
77013;BME280;67260;53.130;17.982;2023-08-07T12:23:14;99778.27;;;19.25;58.83
77013;BME280;67260;53.130;17.982;2023-08-07T12:26:04;99778.34;;;19.46;56.95
77013;BME280;67260;53.130;17.982;2023-08-07T12:28:52;99781.75;;;19.82;57.32
77013;BME280;67260;53.130;17.982;2023-08-07T12:32:03;99776.11;;;20.75;56.15
77013;BME280;67260;53.130;17.982;2023-08-07T12:34:35;99771.58;;;21.28;54.93
77013;BME280;67260;53.130;17.982;2023-08-07T12:37:15;99767.23;;;21.53;54.72
77013;BME280;67260;53.130;17.982;2023-08-07T12:39:57;99777.10;;;21.62;50.97
77013;BME280;67260;53.130;17.982;2023-08-07T12:42:43;99764.73;;;21.43;49.78
77013;BME280;67260;53.130;17.982;2023-08-07T12:45:10;99769.23;;;21.31;50.39
77013;BME280;67260;53.130;17.982;2023-08-07T12:48:00;99767.51;;;21.11;48.88
77013;BME280;67260;53.130;17.982;2023-08-07T12:50:45;99758.12;;;20.79;48.03
77013;BME280;67260;53.130;17.982;2023-08-07T12:53:29;99772.04;;;20.62;51.21
77013;BME280;67260;53.130;17.982;2023-08-07T12:55:58;99764.79;;;20.44;51.28
77013;BME280;67260;53.130;17.982;2023-08-07T12:58:28;99763.80;;;20.33;51.87
77013;BME280;67260;53.130;17.982;2023-08-07T13:01:02;99764.17;;;20.26;50.93
77013;BME280;67260;53.130;17.982;2023-08-07T13:03:35;99763.83;;;20.16;52.64
77013;BME280;67260;53.130;17.982;2023-08-07T13:06:03;99768.04;;;20.06;51.47
77013;BME280;67260;53.130;17.982;2023-08-07T13:08:34;99771.02;;;19.82;52.24
77013;BME280;67260;53.130;17.982;2023-08-07T13:11:07;99776.91;;;19.60;53.20